createdAt,value
2023-02-08T00:02:36.472Z,8.07
2023-02-08T00:05:23.030Z,9.70
2023-02-08T00:08:09.515Z,9.03
2023-02-08T00:10:56.080Z,10.37
2023-02-08T00:13:42.619Z,9.73
2023-02-08T00:16:29.168Z,8.50
2023-02-08T00:19:15.686Z,8.53
2023-02-08T00:22:02.239Z,10.20
2023-02-08T00:24:48.770Z,9.17
2023-02-08T00:27:35.285Z,9.07
2023-02-08T00:30:21.802Z,9.47
2023-02-08T00:33:08.298Z,8.60
2023-02-08T00:35:54.817Z,9.40
2023-02-08T00:38:41.321Z,9.40
2023-02-08T00:41:27.839Z,9.53
2023-02-08T00:44:14.358Z,9.40
2023-02-08T00:47:00.869Z,9.97
2023-02-08T00:49:47.348Z,10.10
2023-02-08T00:52:33.895Z,10.50
2023-02-08T00:55:20.487Z,9.60
2023-02-08T00:58:06.989Z,10.33
2023-02-08T01:00:53.609Z,10.67
2023-02-08T01:03:40.129Z,10.97
2023-02-08T01:06:26.647Z,10.17
2023-02-08T01:09:13.175Z,10.40
2023-02-08T01:11:59.729Z,10.00
2023-02-08T01:14:46.242Z,10.67
2023-02-08T01:17:32.764Z,10.03
2023-02-08T01:20:19.336Z,10.30
2023-02-08T01:23:05.857Z,10.03
2023-02-08T01:25:52.396Z,9.53
2023-02-08T01:28:38.898Z,9.93
2023-02-08T01:31:25.550Z,10.70
2023-02-08T01:34:12.235Z,10.67
2023-02-08T01:36:58.753Z,10.27
2023-02-08T01:39:45.271Z,9.33
2023-02-08T01:42:31.781Z,10.27
2023-02-08T01:45:18.309Z,10.87
2023-02-08T01:48:04.812Z,10.70
2023-02-08T01:50:51.367Z,9.83
2023-02-08T01:53:37.859Z,9.80
2023-02-08T01:56:24.402Z,10.83
2023-02-08T01:59:10.875Z,10.87
2023-02-08T02:01:57.403Z,11.10
2023-02-08T02:04:43.914Z,10.63
2023-02-08T02:07:30.464Z,10.03
2023-02-08T02:10:16.946Z,9.07
2023-02-08T02:13:03.450Z,10.20
2023-02-08T02:15:49.973Z,8.63
2023-02-08T02:18:36.475Z,9.63
2023-02-08T02:21:22.994Z,8.97
2023-02-08T02:24:09.489Z,9.07
2023-02-08T02:26:55.969Z,9.33
2023-02-08T02:29:42.492Z,8.97
2023-02-08T02:32:29.012Z,9.00
2023-02-08T02:35:15.526Z,8.40
2023-02-08T02:38:02.014Z,9.13
2023-02-08T02:40:48.557Z,10.23
2023-02-08T02:43:35.093Z,10.17
2023-02-08T02:46:21.670Z,9.83
2023-02-08T02:49:08.195Z,10.30
2023-02-08T02:51:54.689Z,10.07
2023-02-08T02:54:41.166Z,10.93
2023-02-08T02:57:27.695Z,10.57
2023-02-08T03:00:14.212Z,10.90
2023-02-08T03:03:00.733Z,10.00
2023-02-08T03:05:47.253Z,10.20
2023-02-08T03:08:33.769Z,10.00
2023-02-08T03:11:20.329Z,10.23
2023-02-08T03:14:07.869Z,9.40
2023-02-08T03:16:54.447Z,10.17
2023-02-08T03:19:41.003Z,11.23
2023-02-08T03:22:27.579Z,11.37
2023-02-08T03:25:14.099Z,11.13
2023-02-08T03:28:00.661Z,10.33
2023-02-08T03:30:47.228Z,10.30
2023-02-08T03:33:33.818Z,10.60
2023-02-08T03:36:20.423Z,10.73
2023-02-08T03:39:06.957Z,10.67
2023-02-08T03:41:53.432Z,11.60
2023-02-08T03:44:40.121Z,11.50
2023-02-08T03:47:26.642Z,10.70
2023-02-08T03:50:13.154Z,10.50
2023-02-08T03:52:59.683Z,11.00
2023-02-08T03:55:46.209Z,10.87
2023-02-08T03:58:32.761Z,11.60
2023-02-08T04:01:19.313Z,10.73
2023-02-08T04:04:05.854Z,11.87
2023-02-08T04:06:52.377Z,10.80
2023-02-08T04:09:38.995Z,11.33
2023-02-08T04:12:25.523Z,10.60
2023-02-08T04:15:12.052Z,11.67
2023-02-08T04:17:58.580Z,11.60
2023-02-08T04:20:46.068Z,11.20
2023-02-08T04:23:32.595Z,10.83
2023-02-08T04:26:19.096Z,11.23
2023-02-08T04:29:05.612Z,10.53
2023-02-08T04:31:52.141Z,11.90
2023-02-08T04:34:38.690Z,12.47
2023-02-08T04:37:25.246Z,11.47
2023-02-08T04:40:11.760Z,12.17
2023-02-08T04:42:58.330Z,12.47
2023-02-08T04:45:44.814Z,10.83
2023-02-08T04:48:31.350Z,12.73
2023-02-08T04:51:17.830Z,12.53
2023-02-08T04:54:04.364Z,12.63
2023-02-08T04:56:50.909Z,12.73
2023-02-08T04:59:37.392Z,11.80
2023-02-08T05:02:23.874Z,13.17
2023-02-08T05:05:10.497Z,13.43
2023-02-08T05:07:57.077Z,14.30
2023-02-08T05:10:43.587Z,13.33
2023-02-08T05:13:30.106Z,13.13
2023-02-08T05:16:16.666Z,15.03
2023-02-08T05:19:03.269Z,14.40
2023-02-08T05:21:49.738Z,13.90
2023-02-08T05:24:36.229Z,14.23
2023-02-08T05:27:22.701Z,13.97
2023-02-08T05:30:09.226Z,13.67
2023-02-08T05:32:55.740Z,13.47
2023-02-08T05:35:42.304Z,13.73
2023-02-08T05:38:28.773Z,12.83
2023-02-08T05:41:15.266Z,13.47
2023-02-08T05:44:01.759Z,13.90
2023-02-08T05:46:49.520Z,13.57
2023-02-08T05:49:36.099Z,14.13
2023-02-08T05:52:22.606Z,13.27
2023-02-08T05:55:09.144Z,13.73
2023-02-08T05:57:55.637Z,14.03
2023-02-08T06:00:42.326Z,16.03
2023-02-08T06:03:29.013Z,14.60
2023-02-08T06:06:15.506Z,14.17
2023-02-08T06:09:02.061Z,13.77
2023-02-08T06:11:48.545Z,12.23
2023-02-08T06:14:35.056Z,13.00
2023-02-08T06:17:21.596Z,12.70
2023-02-08T06:20:08.138Z,13.60
2023-02-08T06:22:54.633Z,13.10
2023-02-08T06:25:41.150Z,11.90
2023-02-08T06:28:27.738Z,11.80
2023-02-08T06:31:14.325Z,13.57
2023-02-08T06:34:00.851Z,12.97
2023-02-08T06:36:47.360Z,12.03
2023-02-08T06:39:33.911Z,12.53
2023-02-08T06:42:20.423Z,10.43
2023-02-08T06:45:06.912Z,10.87
2023-02-08T06:47:53.418Z,11.80
2023-02-08T06:50:40.301Z,12.17
2023-02-08T06:53:26.968Z,10.70
2023-02-08T06:56:13.460Z,10.40
2023-02-08T06:58:59.925Z,12.13
2023-02-08T07:01:46.727Z,10.73
2023-02-08T07:04:33.207Z,12.93
2023-02-08T07:07:19.717Z,11.83
2023-02-08T07:10:06.226Z,11.70
2023-02-08T07:12:52.726Z,12.30
2023-02-08T07:15:39.207Z,11.87
2023-02-08T07:18:25.751Z,11.57
2023-02-08T07:21:12.282Z,11.10
2023-02-08T07:23:58.793Z,10.77
2023-02-08T07:26:45.301Z,12.40
2023-02-08T07:29:31.809Z,10.97
2023-02-08T07:32:18.340Z,11.77
2023-02-08T07:35:04.862Z,10.37
2023-02-08T07:37:51.776Z,11.77
2023-02-08T07:40:38.570Z,11.70
2023-02-08T07:43:27.164Z,11.80
2023-02-08T07:46:13.898Z,11.87
2023-02-08T07:49:00.439Z,13.33
2023-02-08T07:51:46.907Z,13.57
2023-02-08T07:54:33.448Z,13.07
2023-02-08T07:57:19.926Z,11.73
2023-02-08T08:00:06.429Z,11.97
2023-02-08T08:02:52.897Z,12.10
2023-02-08T08:05:39.394Z,12.97
2023-02-08T08:08:25.910Z,11.90
2023-02-08T08:11:12.440Z,12.23
2023-02-08T08:13:59.022Z,12.93
2023-02-08T08:16:45.575Z,12.53
2023-02-08T08:19:32.090Z,12.20
2023-02-08T08:22:18.601Z,11.97
2023-02-08T08:25:05.284Z,12.40
2023-02-08T08:27:51.832Z,11.80
2023-02-08T08:30:38.553Z,12.37
2023-02-08T08:33:25.139Z,11.80
2023-02-08T08:36:11.707Z,11.83
2023-02-08T08:38:58.244Z,10.93
2023-02-08T08:41:44.725Z,10.53
2023-02-08T08:44:31.252Z,12.03
2023-02-08T08:47:17.792Z,11.57
2023-02-08T08:50:04.314Z,11.80
2023-02-08T08:52:50.825Z,10.00
2023-02-08T08:55:37.304Z,8.97
2023-02-08T08:58:23.799Z,10.53
2023-02-08T09:01:10.320Z,9.97
2023-02-08T09:03:56.817Z,9.47
2023-02-08T09:06:43.297Z,9.80
2023-02-08T09:09:30.832Z,10.33
2023-02-08T09:12:17.338Z,9.10
2023-02-08T09:15:03.879Z,10.30
2023-02-08T09:17:50.378Z,9.43
2023-02-08T09:20:36.874Z,10.23
2023-02-08T09:23:23.360Z,9.83
2023-02-08T09:26:09.920Z,10.13
2023-02-08T09:28:56.399Z,9.87
2023-02-08T09:31:43.071Z,10.50
2023-02-08T09:34:29.686Z,10.60
2023-02-08T09:37:16.289Z,10.50
2023-02-08T09:40:02.795Z,9.27
2023-02-08T09:42:49.321Z,10.80
2023-02-08T09:45:35.815Z,10.80
2023-02-08T09:48:22.305Z,9.90
2023-02-08T09:51:08.794Z,9.43
2023-02-08T09:53:55.300Z,7.83
2023-02-08T09:56:41.784Z,10.03
2023-02-08T09:59:28.298Z,9.87
2023-02-08T10:02:14.847Z,7.20
2023-02-08T10:05:01.466Z,9.60
2023-02-08T10:07:48.128Z,9.73
2023-02-08T10:10:34.639Z,10.10
2023-02-08T10:13:23.979Z,7.23
2023-02-08T10:16:16.936Z,9.83
2023-02-08T10:19:03.469Z,8.33
2023-02-08T10:21:49.990Z,10.10
2023-02-08T10:24:36.518Z,8.73
2023-02-08T10:27:23.152Z,9.00
2023-02-08T10:30:09.697Z,8.87
2023-02-08T10:32:56.344Z,8.57
2023-02-08T10:35:43.160Z,8.67
2023-02-08T10:38:44.066Z,8.17
2023-02-08T10:41:32.181Z,8.93
2023-02-08T10:44:19.092Z,8.20
2023-02-08T10:47:05.593Z,8.23
2023-02-08T10:49:52.140Z,7.70
2023-02-08T10:52:38.657Z,8.30
2023-02-08T10:55:25.304Z,6.77
2023-02-08T10:58:11.831Z,7.70
2023-02-08T11:00:58.416Z,6.27
2023-02-08T11:03:44.916Z,5.63
2023-02-08T11:06:31.956Z,5.80
2023-02-08T11:09:18.453Z,5.43
2023-02-08T11:12:05.016Z,5.23
2023-02-08T11:14:51.529Z,5.60
2023-02-08T11:17:38.083Z,4.87
2023-02-08T11:20:24.599Z,4.93
2023-02-08T11:23:11.241Z,5.00
2023-02-08T11:25:57.719Z,5.23
2023-02-08T11:28:44.323Z,5.13
2023-02-08T11:31:30.901Z,4.80
2023-02-08T11:34:17.454Z,4.87
2023-02-08T11:37:03.924Z,4.27
2023-02-08T11:39:50.422Z,4.37
2023-02-08T11:42:36.913Z,4.83
2023-02-08T11:45:23.410Z,4.80
2023-02-08T11:48:09.925Z,4.17
2023-02-08T11:50:56.409Z,4.47
2023-02-08T11:53:42.927Z,3.53
2023-02-08T11:56:29.451Z,3.33
2023-02-08T11:59:15.990Z,3.20
2023-02-08T12:02:02.563Z,2.80
2023-02-08T12:04:49.053Z,3.03
2023-02-08T12:07:35.585Z,2.97
2023-02-08T12:10:22.408Z,2.90
2023-02-08T12:13:08.898Z,3.30
2023-02-08T12:15:58.666Z,3.43
2023-02-08T12:18:46.605Z,2.80
2023-02-08T12:21:33.090Z,3.13
2023-02-08T12:24:19.617Z,2.97
2023-02-08T12:27:06.107Z,3.00
2023-02-08T12:29:52.591Z,2.90
2023-02-08T12:32:39.114Z,3.23
2023-02-08T12:35:40.172Z,2.70
2023-02-08T12:38:29.976Z,2.67
2023-02-08T12:41:16.487Z,3.20
2023-02-08T12:44:02.967Z,3.17
2023-02-08T12:46:49.525Z,3.20
2023-02-08T12:49:36.113Z,2.90
2023-02-08T12:52:22.627Z,2.77
2023-02-08T12:55:09.112Z,2.90
2023-02-08T12:57:55.620Z,2.80
2023-02-08T13:00:42.513Z,2.47
2023-02-08T13:03:31.596Z,2.80
2023-02-08T13:06:18.437Z,2.67
2023-02-08T13:09:04.979Z,2.93
2023-02-08T13:11:51.528Z,2.83
2023-02-08T13:14:38.074Z,3.83
2023-02-08T13:17:24.617Z,2.80
2023-02-08T13:20:11.206Z,2.37
2023-02-08T13:22:57.790Z,3.00
2023-02-08T13:25:44.841Z,2.60
2023-02-08T13:28:31.482Z,2.33
2023-02-08T13:31:18.311Z,2.73
2023-02-08T13:34:05.060Z,2.27
2023-02-08T13:36:51.635Z,2.47
2023-02-08T13:39:38.446Z,2.30
2023-02-08T13:42:25.108Z,2.77
2023-02-08T13:45:11.736Z,2.50
2023-02-08T13:47:58.340Z,2.13
2023-02-08T13:50:45.253Z,2.17
2023-02-08T13:53:31.983Z,2.00
2023-02-08T13:56:19.592Z,1.90
2023-02-08T13:59:06.146Z,2.27
2023-02-08T14:01:52.698Z,2.30
2023-02-08T14:04:39.260Z,2.60
2023-02-08T14:07:25.786Z,2.90
2023-02-08T14:10:12.311Z,2.77
2023-02-08T14:12:58.838Z,2.70
2023-02-08T14:15:45.769Z,2.80
2023-02-08T14:18:32.429Z,2.63
2023-02-08T14:21:19.059Z,2.33
2023-02-08T14:24:05.924Z,2.83
2023-02-08T14:26:52.662Z,2.70
2023-02-08T14:29:39.194Z,3.10
2023-02-08T14:32:25.761Z,3.27
2023-02-08T14:35:12.297Z,3.37
2023-02-08T14:38:03.474Z,3.10
2023-02-08T14:40:50.340Z,2.77
2023-02-08T14:43:36.866Z,2.60
2023-02-08T14:46:23.455Z,2.40
2023-02-08T14:49:09.985Z,3.57
2023-02-08T14:51:56.539Z,3.37
2023-02-08T14:54:43.064Z,2.97
2023-02-08T14:57:29.598Z,2.93
2023-02-08T15:00:14.666Z,2.90
2023-02-08T15:03:01.535Z,2.50
2023-02-08T15:05:48.387Z,3.00
2023-02-08T15:08:35.305Z,2.97
2023-02-08T15:11:22.162Z,2.40
2023-02-08T15:14:09.039Z,2.77
2023-02-08T15:16:55.886Z,2.57
2023-02-08T15:19:42.702Z,2.80
2023-02-08T15:22:29.587Z,2.83
2023-02-08T15:25:14.160Z,2.37
2023-02-08T15:27:59.650Z,2.47
2023-02-08T15:30:46.733Z,3.07
2023-02-08T15:33:15.996Z,5.10
2023-02-08T15:36:01.344Z,5.23
2023-02-08T15:38:27.877Z,7.00
2023-02-08T15:41:13.075Z,4.70
2023-02-08T15:43:59.914Z,4.07
2023-02-08T15:46:46.789Z,3.17
2023-02-08T15:49:33.601Z,3.83
2023-02-08T15:52:20.489Z,3.30
2023-02-08T15:55:07.343Z,3.97
2023-02-08T15:57:33.869Z,3.53
2023-02-08T16:00:00.381Z,3.13
2023-02-08T16:02:26.913Z,3.20
2023-02-08T16:04:53.416Z,2.60
2023-02-08T16:07:20.935Z,2.97
2023-02-08T16:09:47.449Z,3.20
2023-02-08T16:12:13.960Z,3.80
2023-02-08T16:14:59.336Z,3.10
2023-02-08T16:17:25.807Z,3.50
2023-02-08T16:20:10.974Z,2.73
2023-02-08T16:22:57.471Z,3.20
2023-02-08T16:25:44.015Z,3.17
2023-02-08T16:28:30.801Z,3.20
2023-02-08T16:31:17.586Z,3.37
2023-02-08T16:34:04.210Z,3.10
2023-02-08T16:36:50.726Z,3.40
2023-02-08T16:39:37.279Z,2.97
2023-02-08T16:42:23.889Z,3.70
2023-02-08T16:45:10.679Z,3.70
2023-02-08T16:48:00.159Z,3.50
2023-02-08T16:50:53.662Z,3.60
2023-02-08T16:53:42.644Z,3.37
2023-02-08T16:56:29.571Z,3.60
2023-02-08T16:59:16.307Z,3.50
2023-02-08T17:02:02.984Z,3.60
2023-02-08T17:04:49.506Z,3.43
2023-02-08T17:07:36.041Z,3.90
2023-02-08T17:10:22.531Z,4.03
2023-02-08T17:13:23.798Z,4.83
2023-02-08T17:16:10.405Z,4.80
2023-02-08T17:18:56.937Z,4.80
2023-02-08T17:21:43.470Z,5.10
2023-02-08T17:24:30.060Z,6.13
2023-02-08T17:27:16.588Z,5.83
2023-02-08T17:30:03.188Z,5.90
2023-02-08T17:32:49.776Z,6.27
2023-02-08T17:35:36.281Z,5.83
2023-02-08T17:38:22.822Z,5.47
2023-02-08T17:41:09.328Z,7.23
2023-02-08T17:43:56.850Z,6.30
2023-02-08T17:46:43.365Z,5.83
2023-02-08T17:49:29.923Z,7.50
2023-02-08T17:52:16.402Z,6.77
2023-02-08T17:55:02.935Z,6.50
2023-02-08T17:57:49.481Z,7.57
2023-02-08T18:00:36.001Z,12.60
2023-02-08T18:03:22.543Z,48.07
2023-02-08T18:06:09.205Z,10.33
2023-02-08T18:08:55.755Z,15.53
2023-02-08T18:11:42.276Z,7.37
2023-02-08T18:14:28.847Z,8.93
2023-02-08T18:17:15.403Z,7.63
2023-02-08T18:20:01.931Z,9.30
2023-02-08T18:22:48.498Z,9.23
2023-02-08T18:25:35.004Z,7.43
2023-02-08T18:28:21.600Z,6.77
2023-02-08T18:31:08.230Z,6.53
2023-02-08T18:33:54.834Z,7.00
2023-02-08T18:36:41.360Z,6.53
2023-02-08T18:39:27.865Z,6.63
2023-02-08T18:42:14.366Z,6.50
2023-02-08T18:45:00.878Z,7.43
2023-02-08T18:47:47.410Z,6.90
2023-02-08T18:50:33.954Z,9.60
2023-02-08T18:53:20.472Z,7.67
2023-02-08T18:56:07.078Z,6.80
2023-02-08T18:58:53.648Z,6.60
2023-02-08T19:01:40.249Z,6.87
2023-02-08T19:04:26.789Z,6.50
2023-02-08T19:07:13.349Z,6.53
2023-02-08T19:09:59.941Z,6.80
2023-02-08T19:12:46.424Z,6.73
2023-02-08T19:15:32.958Z,6.23
2023-02-08T19:18:19.435Z,6.97
2023-02-08T19:21:06.146Z,6.40
2023-02-08T19:23:52.756Z,7.40
2023-02-08T19:26:39.319Z,6.87
2023-02-08T19:29:25.887Z,7.07
2023-02-08T19:32:12.437Z,6.13
2023-02-08T19:34:58.946Z,6.73
2023-02-08T19:37:45.484Z,6.33
2023-02-08T19:40:32.022Z,6.30
2023-02-08T19:43:18.730Z,6.63
2023-02-08T19:46:05.400Z,6.50
2023-02-08T19:48:51.930Z,6.63
2023-02-08T19:51:38.410Z,5.60
2023-02-08T19:54:24.932Z,5.67
2023-02-08T19:57:11.409Z,6.07
2023-02-08T19:59:57.965Z,5.93
2023-02-08T20:02:44.446Z,6.00
2023-02-08T20:05:31.246Z,5.63
2023-02-08T20:08:17.724Z,6.67
2023-02-08T20:11:04.246Z,4.73
2023-02-08T20:13:50.757Z,5.87
2023-02-08T20:16:37.330Z,6.23
2023-02-08T20:19:23.813Z,5.00
2023-02-08T20:22:10.348Z,6.00
2023-02-08T20:24:56.830Z,5.03
2023-02-08T20:27:43.370Z,4.60
2023-02-08T20:30:29.890Z,4.80
2023-02-08T20:33:16.446Z,4.80
2023-02-08T20:36:02.967Z,4.80
2023-02-08T20:38:49.739Z,5.40
2023-02-08T20:41:36.317Z,4.40
2023-02-08T20:44:22.833Z,5.17
2023-02-08T20:47:09.374Z,4.73
2023-02-08T20:49:55.901Z,4.50
2023-02-08T20:52:42.404Z,4.20
2023-02-08T20:55:28.937Z,4.60
2023-02-08T20:58:15.610Z,4.60
2023-02-08T21:01:02.238Z,4.43
2023-02-08T21:03:48.771Z,4.20
2023-02-08T21:06:35.287Z,4.37
2023-02-08T21:09:21.852Z,3.97
2023-02-08T21:12:08.408Z,3.87
2023-02-08T21:14:54.916Z,3.67
2023-02-08T21:17:41.480Z,3.57
2023-02-08T21:20:28.068Z,3.37
2023-02-08T21:23:14.588Z,3.90
2023-02-08T21:26:01.097Z,3.90
2023-02-08T21:28:47.753Z,3.87
2023-02-08T21:31:34.498Z,3.73
2023-02-08T21:34:21.095Z,3.60
2023-02-08T21:37:07.834Z,3.03
2023-02-08T21:39:55.318Z,3.20
2023-02-08T21:42:41.906Z,3.80
2023-02-08T21:45:28.428Z,3.27
2023-02-08T21:48:14.959Z,3.17
2023-02-08T21:51:01.493Z,3.73
2023-02-08T21:53:48.062Z,3.40
2023-02-08T21:56:36.013Z,3.20
2023-02-08T21:59:22.615Z,3.27
2023-02-08T22:02:09.202Z,3.23
2023-02-08T22:04:55.728Z,2.83
2023-02-08T22:07:42.256Z,2.80
2023-02-08T22:10:28.776Z,3.07
2023-02-08T22:13:15.419Z,2.97
2023-02-08T22:16:02.005Z,2.77
2023-02-08T22:18:48.512Z,2.80
2023-02-08T22:21:35.031Z,3.20
2023-02-08T22:24:21.563Z,2.90
2023-02-08T22:27:08.108Z,2.90
2023-02-08T22:29:54.642Z,3.00
2023-02-08T22:32:41.184Z,3.00
2023-02-08T22:35:27.675Z,3.30
2023-02-08T22:38:14.220Z,3.03
2023-02-08T22:41:00.743Z,3.10
2023-02-08T22:43:47.287Z,3.03
2023-02-08T22:46:34.887Z,2.80
2023-02-08T22:49:21.507Z,3.90
2023-02-08T22:52:08.045Z,3.57
2023-02-08T22:54:54.587Z,3.43
2023-02-08T22:57:41.108Z,3.47
2023-02-08T23:00:27.666Z,3.83
2023-02-08T23:03:14.570Z,2.67
2023-02-08T23:06:01.118Z,2.90
2023-02-08T23:08:47.640Z,3.20
2023-02-08T23:11:34.232Z,3.00
2023-02-08T23:14:20.764Z,3.33
2023-02-08T23:17:07.313Z,3.03
2023-02-08T23:19:53.798Z,2.63
2023-02-08T23:22:41.364Z,2.90
2023-02-08T23:25:27.901Z,2.37
2023-02-08T23:28:14.482Z,3.07
2023-02-08T23:31:01.118Z,3.07
2023-02-08T23:33:47.653Z,3.00
2023-02-08T23:36:34.156Z,4.20
2023-02-08T23:39:20.691Z,3.50
2023-02-08T23:42:07.200Z,3.50
2023-02-08T23:44:53.738Z,3.27
2023-02-08T23:47:40.295Z,3.37
2023-02-08T23:50:26.816Z,3.03
2023-02-08T23:53:13.358Z,3.53
2023-02-08T23:55:59.844Z,3.20
2023-02-08T23:58:46.369Z,3.33
